sensor_id;sensor_type;location;lat;lon;timestamp;P1;durP1;ratioP1;P2;durP2;ratioP2
45232;SDS011;30969;51.052;17.056;2023-01-15T00:02:21;4.53;;;1.98;;
45232;SDS011;30969;51.052;17.056;2023-01-15T00:07:25;5.70;;;2.08;;
45232;SDS011;30969;51.052;17.056;2023-01-15T00:12:28;4.78;;;2.17;;
45232;SDS011;30969;51.052;17.056;2023-01-15T00:17:33;5.65;;;2.38;;
45232;SDS011;30969;51.052;17.056;2023-01-15T00:22:36;6.70;;;2.55;;
45232;SDS011;30969;51.052;17.056;2023-01-15T00:27:40;5.00;;;2.17;;
45232;SDS011;30969;51.052;17.056;2023-01-15T00:32:48;3.45;;;2.17;;
45232;SDS011;30969;51.052;17.056;2023-01-15T00:37:51;5.30;;;2.13;;
45232;SDS011;30969;51.052;17.056;2023-01-15T00:42:55;4.65;;;1.92;;
45232;SDS011;30969;51.052;17.056;2023-01-15T00:47:59;3.90;;;2.15;;
45232;SDS011;30969;51.052;17.056;2023-01-15T00:53:03;2.80;;;1.80;;
45232;SDS011;30969;51.052;17.056;2023-01-15T00:58:06;4.68;;;2.40;;
45232;SDS011;30969;51.052;17.056;2023-01-15T01:03:11;4.53;;;2.10;;
45232;SDS011;30969;51.052;17.056;2023-01-15T01:08:15;5.43;;;2.30;;
45232;SDS011;30969;51.052;17.056;2023-01-15T01:13:19;5.20;;;2.08;;
45232;SDS011;30969;51.052;17.056;2023-01-15T01:18:24;4.93;;;2.38;;
45232;SDS011;30969;51.052;17.056;2023-01-15T01:23:27;5.38;;;2.05;;
45232;SDS011;30969;51.052;17.056;2023-01-15T01:28:32;4.80;;;2.00;;
45232;SDS011;30969;51.052;17.056;2023-01-15T01:33:37;4.22;;;2.83;;
45232;SDS011;30969;51.052;17.056;2023-01-15T01:38:40;5.22;;;1.85;;
45232;SDS011;30969;51.052;17.056;2023-01-15T01:49:08;4.00;;;2.13;;
45232;SDS011;30969;51.052;17.056;2023-01-15T01:54:15;5.13;;;2.10;;
45232;SDS011;30969;51.052;17.056;2023-01-15T01:59:22;5.57;;;1.92;;
45232;SDS011;30969;51.052;17.056;2023-01-15T02:04:28;2.65;;;1.70;;
45232;SDS011;30969;51.052;17.056;2023-01-15T02:09:32;6.03;;;2.20;;
45232;SDS011;30969;51.052;17.056;2023-01-15T02:14:37;4.18;;;2.38;;
45232;SDS011;30969;51.052;17.056;2023-01-15T02:19:48;4.60;;;1.98;;
45232;SDS011;30969;51.052;17.056;2023-01-15T02:24:59;3.70;;;1.70;;
45232;SDS011;30969;51.052;17.056;2023-01-15T02:30:12;3.10;;;1.70;;
45232;SDS011;30969;51.052;17.056;2023-01-15T02:35:22;4.43;;;2.03;;
45232;SDS011;30969;51.052;17.056;2023-01-15T02:40:30;4.22;;;1.80;;
45232;SDS011;30969;51.052;17.056;2023-01-15T02:45:38;3.85;;;1.90;;
45232;SDS011;30969;51.052;17.056;2023-01-15T02:50:47;3.40;;;1.65;;
45232;SDS011;30969;51.052;17.056;2023-01-15T02:55:54;3.55;;;1.80;;
45232;SDS011;30969;51.052;17.056;2023-01-15T03:01:03;2.50;;;1.75;;
45232;SDS011;30969;51.052;17.056;2023-01-15T03:06:12;4.03;;;1.60;;
45232;SDS011;30969;51.052;17.056;2023-01-15T03:11:20;3.28;;;1.75;;
45232;SDS011;30969;51.052;17.056;2023-01-15T03:16:26;3.17;;;1.65;;
45232;SDS011;30969;51.052;17.056;2023-01-15T03:21:42;3.05;;;1.63;;
45232;SDS011;30969;51.052;17.056;2023-01-15T03:26:49;2.58;;;1.23;;
45232;SDS011;30969;51.052;17.056;2023-01-15T03:31:55;2.15;;;1.25;;
45232;SDS011;30969;51.052;17.056;2023-01-15T03:37:00;2.22;;;1.40;;
45232;SDS011;30969;51.052;17.056;2023-01-15T03:42:08;2.53;;;1.17;;
45232;SDS011;30969;51.052;17.056;2023-01-15T03:47:25;2.63;;;1.40;;
45232;SDS011;30969;51.052;17.056;2023-01-15T03:52:36;4.00;;;1.60;;
45232;SDS011;30969;51.052;17.056;2023-01-15T03:57:47;3.55;;;1.45;;
45232;SDS011;30969;51.052;17.056;2023-01-15T04:02:54;2.10;;;1.30;;
45232;SDS011;30969;51.052;17.056;2023-01-15T04:07:59;3.28;;;1.55;;
45232;SDS011;30969;51.052;17.056;2023-01-15T04:13:04;3.13;;;1.90;;
45232;SDS011;30969;51.052;17.056;2023-01-15T04:18:09;2.03;;;1.15;;
45232;SDS011;30969;51.052;17.056;2023-01-15T04:23:13;5.68;;;1.50;;
45232;SDS011;30969;51.052;17.056;2023-01-15T04:28:17;1.88;;;1.20;;
45232;SDS011;30969;51.052;17.056;2023-01-15T04:33:22;1.88;;;1.27;;
45232;SDS011;30969;51.052;17.056;2023-01-15T04:38:25;3.05;;;2.03;;
45232;SDS011;30969;51.052;17.056;2023-01-15T04:43:28;2.15;;;1.00;;
45232;SDS011;30969;51.052;17.056;2023-01-15T04:48:51;2.95;;;1.33;;
45232;SDS011;30969;51.052;17.056;2023-01-15T04:53:54;2.28;;;1.60;;
45232;SDS011;30969;51.052;17.056;2023-01-15T04:58:58;1.98;;;1.30;;
45232;SDS011;30969;51.052;17.056;2023-01-15T05:04:04;3.88;;;1.55;;
45232;SDS011;30969;51.052;17.056;2023-01-15T05:09:08;2.42;;;1.45;;
45232;SDS011;30969;51.052;17.056;2023-01-15T05:14:12;3.25;;;1.50;;
45232;SDS011;30969;51.052;17.056;2023-01-15T05:19:17;2.00;;;1.40;;
45232;SDS011;30969;51.052;17.056;2023-01-15T05:24:20;2.65;;;1.50;;
45232;SDS011;30969;51.052;17.056;2023-01-15T05:29:24;3.05;;;1.70;;
45232;SDS011;30969;51.052;17.056;2023-01-15T05:34:29;3.33;;;1.45;;
45232;SDS011;30969;51.052;17.056;2023-01-15T05:39:32;2.30;;;1.50;;
45232;SDS011;30969;51.052;17.056;2023-01-15T05:44:36;4.10;;;1.25;;
45232;SDS011;30969;51.052;17.056;2023-01-15T05:49:41;2.38;;;1.60;;
45232;SDS011;30969;51.052;17.056;2023-01-15T05:54:44;1.80;;;1.23;;
45232;SDS011;30969;51.052;17.056;2023-01-15T05:59:48;5.43;;;2.00;;
45232;SDS011;30969;51.052;17.056;2023-01-15T06:04:53;2.53;;;1.70;;
45232;SDS011;30969;51.052;17.056;2023-01-15T06:09:56;2.50;;;1.60;;
45232;SDS011;30969;51.052;17.056;2023-01-15T06:14:59;2.80;;;1.50;;
45232;SDS011;30969;51.052;17.056;2023-01-15T06:20:05;2.90;;;1.40;;
45232;SDS011;30969;51.052;17.056;2023-01-15T06:25:09;2.13;;;1.40;;
45232;SDS011;30969;51.052;17.056;2023-01-15T06:30:12;3.28;;;1.63;;
45232;SDS011;30969;51.052;17.056;2023-01-15T06:35:17;2.35;;;1.30;;
45232;SDS011;30969;51.052;17.056;2023-01-15T06:40:21;2.35;;;1.48;;
45232;SDS011;30969;51.052;17.056;2023-01-15T06:45:26;2.65;;;1.50;;
45232;SDS011;30969;51.052;17.056;2023-01-15T06:50:53;3.67;;;1.80;;
45232;SDS011;30969;51.052;17.056;2023-01-15T06:55:57;3.08;;;1.58;;
45232;SDS011;30969;51.052;17.056;2023-01-15T07:01:05;3.00;;;1.70;;
45232;SDS011;30969;51.052;17.056;2023-01-15T07:06:12;3.08;;;1.85;;
45232;SDS011;30969;51.052;17.056;2023-01-15T07:11:15;3.03;;;1.75;;
45232;SDS011;30969;51.052;17.056;2023-01-15T07:16:19;3.50;;;1.67;;
45232;SDS011;30969;51.052;17.056;2023-01-15T07:21:32;2.05;;;1.40;;
45232;SDS011;30969;51.052;17.056;2023-01-15T07:26:36;4.28;;;2.10;;
45232;SDS011;30969;51.052;17.056;2023-01-15T07:31:40;3.78;;;1.60;;
45232;SDS011;30969;51.052;17.056;2023-01-15T07:36:45;2.15;;;1.27;;
45232;SDS011;30969;51.052;17.056;2023-01-15T07:41:48;4.72;;;2.33;;
45232;SDS011;30969;51.052;17.056;2023-01-15T07:47:13;2.58;;;1.75;;
45232;SDS011;30969;51.052;17.056;2023-01-15T07:52:38;3.60;;;2.30;;
45232;SDS011;30969;51.052;17.056;2023-01-15T07:57:41;4.97;;;2.80;;
45232;SDS011;30969;51.052;17.056;2023-01-15T08:02:45;6.60;;;3.85;;
45232;SDS011;30969;51.052;17.056;2023-01-15T08:07:51;4.07;;;2.38;;
45232;SDS011;30969;51.052;17.056;2023-01-15T08:12:55;3.88;;;2.30;;
45232;SDS011;30969;51.052;17.056;2023-01-15T08:18:16;4.05;;;2.58;;
45232;SDS011;30969;51.052;17.056;2023-01-15T08:23:21;2.88;;;1.95;;
45232;SDS011;30969;51.052;17.056;2023-01-15T08:28:24;2.30;;;1.60;;
45232;SDS011;30969;51.052;17.056;2023-01-15T08:33:27;5.43;;;3.13;;
45232;SDS011;30969;51.052;17.056;2023-01-15T08:38:32;3.55;;;2.20;;
45232;SDS011;30969;51.052;17.056;2023-01-15T08:43:36;3.45;;;2.28;;
45232;SDS011;30969;51.052;17.056;2023-01-15T08:48:39;4.40;;;2.40;;
45232;SDS011;30969;51.052;17.056;2023-01-15T08:53:45;3.83;;;2.58;;
45232;SDS011;30969;51.052;17.056;2023-01-15T08:58:48;3.38;;;2.08;;
45232;SDS011;30969;51.052;17.056;2023-01-15T09:03:51;3.75;;;2.60;;
45232;SDS011;30969;51.052;17.056;2023-01-15T09:08:57;5.72;;;2.20;;
45232;SDS011;30969;51.052;17.056;2023-01-15T09:14:01;4.05;;;2.28;;
45232;SDS011;30969;51.052;17.056;2023-01-15T09:19:05;3.15;;;1.83;;
45232;SDS011;30969;51.052;17.056;2023-01-15T09:24:10;2.42;;;1.65;;
45232;SDS011;30969;51.052;17.056;2023-01-15T09:29:14;3.05;;;2.00;;
45232;SDS011;30969;51.052;17.056;2023-01-15T09:34:18;3.63;;;2.20;;
45232;SDS011;30969;51.052;17.056;2023-01-15T09:39:22;3.40;;;2.15;;
45232;SDS011;30969;51.052;17.056;2023-01-15T09:44:28;2.50;;;1.77;;
45232;SDS011;30969;51.052;17.056;2023-01-15T09:49:59;3.53;;;2.05;;
45232;SDS011;30969;51.052;17.056;2023-01-15T09:55:20;3.25;;;1.90;;
45232;SDS011;30969;51.052;17.056;2023-01-15T10:00:32;4.32;;;2.47;;
45232;SDS011;30969;51.052;17.056;2023-01-15T10:05:41;3.17;;;2.08;;
45232;SDS011;30969;51.052;17.056;2023-01-15T10:10:51;6.30;;;3.65;;
45232;SDS011;30969;51.052;17.056;2023-01-15T10:15:58;9.48;;;2.28;;
45232;SDS011;30969;51.052;17.056;2023-01-15T10:21:06;4.03;;;2.40;;
45232;SDS011;30969;51.052;17.056;2023-01-15T10:26:25;3.60;;;2.05;;
45232;SDS011;30969;51.052;17.056;2023-01-15T10:31:37;4.75;;;2.35;;
45232;SDS011;30969;51.052;17.056;2023-01-15T10:36:52;5.13;;;3.30;;
45232;SDS011;30969;51.052;17.056;2023-01-15T10:42:02;4.68;;;2.45;;
45232;SDS011;30969;51.052;17.056;2023-01-15T10:47:15;3.30;;;1.85;;
45232;SDS011;30969;51.052;17.056;2023-01-15T10:52:23;5.20;;;2.28;;
45232;SDS011;30969;51.052;17.056;2023-01-15T10:57:37;3.78;;;2.03;;
45232;SDS011;30969;51.052;17.056;2023-01-15T11:02:46;3.30;;;1.98;;
45232;SDS011;30969;51.052;17.056;2023-01-15T11:07:55;3.03;;;2.08;;
45232;SDS011;30969;51.052;17.056;2023-01-15T11:13:22;5.55;;;3.15;;
45232;SDS011;30969;51.052;17.056;2023-01-15T11:18:45;6.63;;;2.13;;
45232;SDS011;30969;51.052;17.056;2023-01-15T11:24:11;3.72;;;2.33;;
45232;SDS011;30969;51.052;17.056;2023-01-15T11:29:23;6.40;;;2.72;;
45232;SDS011;30969;51.052;17.056;2023-01-15T11:34:33;3.17;;;2.20;;
45232;SDS011;30969;51.052;17.056;2023-01-15T11:39:39;3.28;;;2.08;;
45232;SDS011;30969;51.052;17.056;2023-01-15T11:44:55;7.15;;;4.30;;
45232;SDS011;30969;51.052;17.056;2023-01-15T11:50:17;5.05;;;2.90;;
45232;SDS011;30969;51.052;17.056;2023-01-15T11:55:38;6.68;;;3.78;;
45232;SDS011;30969;51.052;17.056;2023-01-15T12:00:43;5.43;;;3.22;;
45232;SDS011;30969;51.052;17.056;2023-01-15T12:05:54;6.97;;;2.70;;
45232;SDS011;30969;51.052;17.056;2023-01-15T12:11:01;5.25;;;2.53;;
45232;SDS011;30969;51.052;17.056;2023-01-15T12:16:30;4.85;;;2.75;;
45232;SDS011;30969;51.052;17.056;2023-01-15T12:21:50;10.13;;;5.50;;
45232;SDS011;30969;51.052;17.056;2023-01-15T12:27:30;4.80;;;2.83;;
45232;SDS011;30969;51.052;17.056;2023-01-15T12:32:57;4.25;;;2.88;;
45232;SDS011;30969;51.052;17.056;2023-01-15T12:38:09;8.88;;;3.95;;
45232;SDS011;30969;51.052;17.056;2023-01-15T12:43:18;7.22;;;2.90;;
45232;SDS011;30969;51.052;17.056;2023-01-15T12:48:46;5.80;;;2.92;;
45232;SDS011;30969;51.052;17.056;2023-01-15T12:53:56;3.92;;;1.30;;
45232;SDS011;30969;51.052;17.056;2023-01-15T12:59:06;2.90;;;1.05;;
45232;SDS011;30969;51.052;17.056;2023-01-15T13:04:19;2.22;;;1.00;;
45232;SDS011;30969;51.052;17.056;2023-01-15T13:09:29;2.65;;;1.13;;
45232;SDS011;30969;51.052;17.056;2023-01-15T13:14:40;2.00;;;1.08;;
45232;SDS011;30969;51.052;17.056;2023-01-15T13:19:51;2.88;;;1.40;;
45232;SDS011;30969;51.052;17.056;2023-01-15T13:25:19;3.50;;;1.08;;
45232;SDS011;30969;51.052;17.056;2023-01-15T13:30:32;1.90;;;1.02;;
45232;SDS011;30969;51.052;17.056;2023-01-15T13:35:48;2.70;;;1.40;;
45232;SDS011;30969;51.052;17.056;2023-01-15T13:40:56;2.92;;;1.17;;
45232;SDS011;30969;51.052;17.056;2023-01-15T13:46:00;2.22;;;0.98;;
45232;SDS011;30969;51.052;17.056;2023-01-15T13:51:07;2.83;;;1.20;;
45232;SDS011;30969;51.052;17.056;2023-01-15T13:56:26;3.15;;;1.45;;
45232;SDS011;30969;51.052;17.056;2023-01-15T14:01:32;2.42;;;1.20;;
45232;SDS011;30969;51.052;17.056;2023-01-15T14:06:39;2.42;;;1.38;;
45232;SDS011;30969;51.052;17.056;2023-01-15T14:11:48;3.08;;;1.70;;
45232;SDS011;30969;51.052;17.056;2023-01-15T14:17:11;3.97;;;2.13;;
45232;SDS011;30969;51.052;17.056;2023-01-15T14:22:42;3.70;;;2.08;;
45232;SDS011;30969;51.052;17.056;2023-01-15T14:28:04;4.70;;;2.42;;
45232;SDS011;30969;51.052;17.056;2023-01-15T14:33:24;2.65;;;1.60;;
45232;SDS011;30969;51.052;17.056;2023-01-15T14:38:35;2.88;;;1.73;;
45232;SDS011;30969;51.052;17.056;2023-01-15T14:43:38;3.92;;;2.28;;
45232;SDS011;30969;51.052;17.056;2023-01-15T14:48:50;2.67;;;1.65;;
45232;SDS011;30969;51.052;17.056;2023-01-15T14:53:56;3.58;;;2.00;;
45232;SDS011;30969;51.052;17.056;2023-01-15T14:59:07;4.68;;;1.83;;
45232;SDS011;30969;51.052;17.056;2023-01-15T15:09:37;6.15;;;3.58;;
45232;SDS011;30969;51.052;17.056;2023-01-15T15:14:44;8.38;;;5.22;;
45232;SDS011;30969;51.052;17.056;2023-01-15T15:19:52;6.93;;;3.20;;
45232;SDS011;30969;51.052;17.056;2023-01-15T15:25:07;6.60;;;3.95;;
45232;SDS011;30969;51.052;17.056;2023-01-15T15:30:14;17.48;;;7.47;;
45232;SDS011;30969;51.052;17.056;2023-01-15T15:35:23;20.10;;;9.38;;
45232;SDS011;30969;51.052;17.056;2023-01-15T15:40:31;27.73;;;9.82;;
45232;SDS011;30969;51.052;17.056;2023-01-15T15:45:36;12.77;;;7.18;;
45232;SDS011;30969;51.052;17.056;2023-01-15T15:50:57;9.80;;;5.95;;
45232;SDS011;30969;51.052;17.056;2023-01-15T15:56:02;7.78;;;4.35;;
45232;SDS011;30969;51.052;17.056;2023-01-15T16:01:08;6.95;;;4.05;;
45232;SDS011;30969;51.052;17.056;2023-01-15T16:06:16;9.32;;;5.53;;
45232;SDS011;30969;51.052;17.056;2023-01-15T16:11:23;10.13;;;6.18;;
45232;SDS011;30969;51.052;17.056;2023-01-15T16:16:28;13.55;;;7.70;;
45232;SDS011;30969;51.052;17.056;2023-01-15T16:21:33;7.30;;;4.65;;
45232;SDS011;30969;51.052;17.056;2023-01-15T16:26:41;8.85;;;5.53;;
45232;SDS011;30969;51.052;17.056;2023-01-15T16:31:49;8.07;;;5.20;;
45232;SDS011;30969;51.052;17.056;2023-01-15T16:36:57;12.60;;;6.70;;
45232;SDS011;30969;51.052;17.056;2023-01-15T16:42:03;15.20;;;8.80;;
45232;SDS011;30969;51.052;17.056;2023-01-15T16:47:24;17.65;;;8.98;;
45232;SDS011;30969;51.052;17.056;2023-01-15T16:52:42;12.05;;;7.72;;
45232;SDS011;30969;51.052;17.056;2023-01-15T16:57:58;12.70;;;7.18;;
45232;SDS011;30969;51.052;17.056;2023-01-15T17:03:18;10.95;;;6.75;;
45232;SDS011;30969;51.052;17.056;2023-01-15T17:08:29;8.88;;;5.18;;
45232;SDS011;30969;51.052;17.056;2023-01-15T17:13:39;11.50;;;6.63;;
45232;SDS011;30969;51.052;17.056;2023-01-15T17:18:43;12.18;;;7.10;;
45232;SDS011;30969;51.052;17.056;2023-01-15T17:23:48;12.25;;;6.35;;
45232;SDS011;30969;51.052;17.056;2023-01-15T17:28:54;12.82;;;7.22;;
45232;SDS011;30969;51.052;17.056;2023-01-15T17:33:58;14.80;;;7.65;;
45232;SDS011;30969;51.052;17.056;2023-01-15T17:39:02;15.60;;;8.73;;
45232;SDS011;30969;51.052;17.056;2023-01-15T17:44:08;14.27;;;7.68;;
45232;SDS011;30969;51.052;17.056;2023-01-15T17:49:12;11.10;;;7.68;;
45232;SDS011;30969;51.052;17.056;2023-01-15T17:54:15;12.75;;;7.20;;
45232;SDS011;30969;51.052;17.056;2023-01-15T17:59:40;13.18;;;7.80;;
45232;SDS011;30969;51.052;17.056;2023-01-15T18:05:01;13.02;;;8.60;;
45232;SDS011;30969;51.052;17.056;2023-01-15T18:10:22;12.90;;;6.28;;
45232;SDS011;30969;51.052;17.056;2023-01-15T18:15:29;14.20;;;8.70;;
45232;SDS011;30969;51.052;17.056;2023-01-15T18:20:32;12.05;;;7.55;;
45232;SDS011;30969;51.052;17.056;2023-01-15T18:25:36;10.25;;;6.47;;
45232;SDS011;30969;51.052;17.056;2023-01-15T18:30:47;19.17;;;9.88;;
45232;SDS011;30969;51.052;17.056;2023-01-15T18:36:00;19.38;;;11.07;;
45232;SDS011;30969;51.052;17.056;2023-01-15T18:41:05;17.20;;;10.02;;
45232;SDS011;30969;51.052;17.056;2023-01-15T18:46:11;14.18;;;8.55;;
45232;SDS011;30969;51.052;17.056;2023-01-15T18:51:31;13.85;;;8.30;;
45232;SDS011;30969;51.052;17.056;2023-01-15T18:56:35;14.20;;;8.38;;
45232;SDS011;30969;51.052;17.056;2023-01-15T19:01:44;12.15;;;6.80;;
45232;SDS011;30969;51.052;17.056;2023-01-15T19:06:48;11.48;;;7.10;;
45232;SDS011;30969;51.052;17.056;2023-01-15T19:11:52;10.27;;;6.28;;
45232;SDS011;30969;51.052;17.056;2023-01-15T19:16:57;10.65;;;5.65;;
45232;SDS011;30969;51.052;17.056;2023-01-15T19:22:18;10.68;;;5.45;;
45232;SDS011;30969;51.052;17.056;2023-01-15T19:27:39;9.45;;;4.88;;
45232;SDS011;30969;51.052;17.056;2023-01-15T19:32:44;7.28;;;3.88;;
45232;SDS011;30969;51.052;17.056;2023-01-15T19:37:47;8.98;;;5.13;;
45232;SDS011;30969;51.052;17.056;2023-01-15T19:42:51;7.22;;;3.97;;
45232;SDS011;30969;51.052;17.056;2023-01-15T19:48:15;8.02;;;4.38;;
45232;SDS011;30969;51.052;17.056;2023-01-15T19:53:37;9.15;;;5.25;;
45232;SDS011;30969;51.052;17.056;2023-01-15T19:58:41;11.95;;;6.75;;
45232;SDS011;30969;51.052;17.056;2023-01-15T20:03:46;13.88;;;7.03;;
45232;SDS011;30969;51.052;17.056;2023-01-15T20:08:49;14.82;;;8.07;;
45232;SDS011;30969;51.052;17.056;2023-01-15T20:13:53;13.25;;;7.68;;
45232;SDS011;30969;51.052;17.056;2023-01-15T20:18:57;11.15;;;5.90;;
45232;SDS011;30969;51.052;17.056;2023-01-15T20:24:01;8.30;;;4.70;;
45232;SDS011;30969;51.052;17.056;2023-01-15T20:29:05;10.98;;;4.72;;
45232;SDS011;30969;51.052;17.056;2023-01-15T20:34:14;7.90;;;5.00;;
45232;SDS011;30969;51.052;17.056;2023-01-15T20:39:18;10.57;;;4.63;;
45232;SDS011;30969;51.052;17.056;2023-01-15T20:44:22;9.05;;;4.60;;
45232;SDS011;30969;51.052;17.056;2023-01-15T20:49:45;6.65;;;3.88;;
45232;SDS011;30969;51.052;17.056;2023-01-15T20:54:50;6.95;;;4.47;;
45232;SDS011;30969;51.052;17.056;2023-01-15T20:59:54;15.40;;;6.30;;
45232;SDS011;30969;51.052;17.056;2023-01-15T21:04:59;10.43;;;4.60;;
45232;SDS011;30969;51.052;17.056;2023-01-15T21:10:04;8.50;;;4.28;;
45232;SDS011;30969;51.052;17.056;2023-01-15T21:15:10;11.80;;;5.43;;
45232;SDS011;30969;51.052;17.056;2023-01-15T21:25:20;9.38;;;4.57;;
45232;SDS011;30969;51.052;17.056;2023-01-15T21:30:23;12.70;;;4.88;;
45232;SDS011;30969;51.052;17.056;2023-01-15T21:35:28;11.27;;;5.63;;
45232;SDS011;30969;51.052;17.056;2023-01-15T21:40:32;8.65;;;4.20;;
45232;SDS011;30969;51.052;17.056;2023-01-15T21:45:35;6.63;;;3.67;;
45232;SDS011;30969;51.052;17.056;2023-01-15T21:50:40;7.95;;;3.25;;
45232;SDS011;30969;51.052;17.056;2023-01-15T21:55:46;5.25;;;2.92;;
45232;SDS011;30969;51.052;17.056;2023-01-15T22:00:50;6.03;;;3.00;;
45232;SDS011;30969;51.052;17.056;2023-01-15T22:05:55;8.75;;;3.75;;
45232;SDS011;30969;51.052;17.056;2023-01-15T22:11:06;6.90;;;3.33;;
45232;SDS011;30969;51.052;17.056;2023-01-15T22:16:11;4.10;;;2.20;;
45232;SDS011;30969;51.052;17.056;2023-01-15T22:21:16;7.13;;;3.45;;
45232;SDS011;30969;51.052;17.056;2023-01-15T22:26:20;4.78;;;2.42;;
45232;SDS011;30969;51.052;17.056;2023-01-15T22:31:25;3.10;;;1.98;;
45232;SDS011;30969;51.052;17.056;2023-01-15T22:36:30;4.20;;;1.85;;
45232;SDS011;30969;51.052;17.056;2023-01-15T22:41:33;7.15;;;1.70;;
45232;SDS011;30969;51.052;17.056;2023-01-15T22:46:54;2.45;;;1.30;;
45232;SDS011;30969;51.052;17.056;2023-01-15T22:51:59;3.42;;;2.03;;
45232;SDS011;30969;51.052;17.056;2023-01-15T22:57:03;6.30;;;2.47;;
45232;SDS011;30969;51.052;17.056;2023-01-15T23:02:07;4.45;;;1.30;;
45232;SDS011;30969;51.052;17.056;2023-01-15T23:07:13;3.05;;;1.60;;
45232;SDS011;30969;51.052;17.056;2023-01-15T23:12:16;3.08;;;1.40;;
45232;SDS011;30969;51.052;17.056;2023-01-15T23:17:20;2.65;;;1.10;;
45232;SDS011;30969;51.052;17.056;2023-01-15T23:22:24;3.70;;;1.10;;
45232;SDS011;30969;51.052;17.056;2023-01-15T23:27:28;3.42;;;1.10;;
45232;SDS011;30969;51.052;17.056;2023-01-15T23:32:32;3.88;;;0.95;;
45232;SDS011;30969;51.052;17.056;2023-01-15T23:37:37;4.35;;;2.20;;
45232;SDS011;30969;51.052;17.056;2023-01-15T23:42:40;6.80;;;1.92;;
45232;SDS011;30969;51.052;17.056;2023-01-15T23:48:01;5.00;;;1.60;;
45232;SDS011;30969;51.052;17.056;2023-01-15T23:53:11;2.63;;;1.08;;
45232;SDS011;30969;51.052;17.056;2023-01-15T23:58:15;3.55;;;1.40;;
